Time;durP1;ratioP1;P1;durP2;ratioP2;P2;SDS_P1;SDS_P2;PMS_P1;PMS_P2;Temp;Humidity;BMP_temperature;BMP_pressure;BME280_temperature;BME280_humidity;BME280_pressure;Samples;Min_cycle;Max_cycle;Signal;HPM_P1;HPM_P2
2023/08/03 00:01:32;;;;;;;3.47;2.40;;;;;;;17.77;100.00;98859.34;4912061;29;20500;-81
2023/08/03 00:04:03;;;;;;;4.40;2.00;;;;;;;17.80;100.00;98865.06;4921947;29;20384;-80
2023/08/03 00:06:32;;;;;;;2.40;1.77;;;;;;;17.78;100.00;98867.25;4917138;29;20450;-80
2023/08/03 00:09:01;;;;;;;2.70;1.83;;;;;;;17.74;100.00;98865.44;4915321;29;20502;-81
2023/08/03 00:11:30;;;;;;;2.73;2.40;;;;;;;17.71;100.00;98864.13;4911792;29;20445;-82
2023/08/03 00:14:01;;;;;;;3.53;2.00;;;;;;;17.81;100.00;98871.34;4910586;29;20446;-81
2023/08/03 00:16:30;;;;;;;2.30;1.70;;;;;;;17.76;100.00;98869.50;4936355;29;20527;-82
2023/08/03 00:19:00;;;;;;;2.13;1.60;;;;;;;17.78;100.00;98875.47;4905687;29;20935;-81
2023/08/03 00:21:29;;;;;;;2.33;1.37;;;;;;;17.81;100.00;98877.59;4911115;29;20470;-81
2023/08/03 00:23:58;;;;;;;2.20;1.67;;;;;;;17.78;100.00;98871.91;4909074;29;20412;-81
2023/08/03 00:26:29;;;;;;;4.50;1.50;;;;;;;17.70;100.00;98880.81;4914137;29;20480;-81
2023/08/03 00:28:59;;;;;;;3.73;2.70;;;;;;;17.73;100.00;98889.22;4916266;29;20466;-82
2023/08/03 00:31:32;;;;;;;7.20;1.70;;;;;;;17.68;100.00;98883.84;4912877;29;20488;-82
2023/08/03 00:34:02;;;;;;;2.17;1.43;;;;;;;17.65;100.00;98887.19;4920485;29;20413;-81
2023/08/03 00:36:32;;;;;;;4.13;2.03;;;;;;;17.82;100.00;98886.63;4925661;29;20544;-80
2023/08/03 00:39:02;;;;;;;3.17;1.80;;;;;;;17.74;100.00;98890.03;4922644;29;20462;-82
2023/08/03 00:41:32;;;;;;;4.13;1.73;;;;;;;17.72;100.00;98890.34;4916902;29;20417;-81
2023/08/03 00:44:02;;;;;;;2.57;1.57;;;;;;;17.73;100.00;98897.44;4927111;29;20443;-80
2023/08/03 00:46:32;;;;;;;2.03;1.40;;;;;;;17.75;100.00;98889.75;4916715;29;20413;-81
2023/08/03 00:49:02;;;;;;;2.37;1.50;;;;;;;17.62;100.00;98895.94;4916840;29;20473;-81
2023/08/03 00:51:31;;;;;;;2.63;1.77;;;;;;;17.69;100.00;98901.06;4913498;29;20448;-82
2023/08/03 00:54:00;;;;;;;3.43;1.67;;;;;;;17.75;100.00;98903.44;4910202;29;20919;-82
2023/08/03 00:56:30;;;;;;;4.43;2.27;;;;;;;17.73;100.00;98897.44;4902082;29;20439;-83
2023/08/03 00:58:59;;;;;;;3.47;1.70;;;;;;;17.67;100.00;98901.34;4913972;29;20484;-81
2023/08/03 01:01:28;;;;;;;3.00;2.20;;;;;;;17.60;100.00;98892.72;4906921;29;20522;-81
2023/08/03 01:04:00;;;;;;;3.97;1.90;;;;;;;17.62;100.00;98887.75;4908153;29;20409;-82
2023/08/03 01:06:30;;;;;;;3.10;2.13;;;;;;;17.66;100.00;98902.47;4913355;29;20438;-83
2023/08/03 01:09:00;;;;;;;2.60;1.87;;;;;;;17.70;100.00;98897.22;4909058;29;20455;-81
2023/08/03 01:11:32;;;;;;;2.47;2.03;;;;;;;17.68;100.00;98888.50;4906324;29;20460;-82
2023/08/03 01:14:02;;;;;;;2.63;2.30;;;;;;;17.69;100.00;98896.41;4910648;29;20441;-82
2023/08/03 01:16:31;;;;;;;3.00;1.70;;;;;;;17.65;100.00;98900.84;4911346;29;20442;-81
2023/08/03 01:19:02;;;;;;;8.13;2.03;;;;;;;17.74;100.00;98904.53;4913878;29;20726;-82
2023/08/03 01:21:35;;;;;;;2.40;2.20;;;;;;;17.72;100.00;98901.28;4904164;29;20450;-81
2023/08/03 01:24:06;;;;;;;3.53;1.63;;;;;;;17.83;100.00;98906.59;4916862;29;20899;-82
2023/08/03 01:26:35;;;;;;;3.20;1.90;;;;;;;17.73;100.00;98900.16;4907969;29;20425;-81
2023/08/03 01:29:05;;;;;;;3.37;1.87;;;;;;;17.81;100.00;98913.16;4926619;29;20442;-80
2023/08/03 01:31:34;;;;;;;4.80;1.60;;;;;;;17.87;100.00;98924.84;4920126;29;20454;-80
2023/08/03 01:34:04;;;;;;;2.83;1.60;;;;;;;17.82;100.00;98930.41;4928618;29;20476;-80
2023/08/03 01:36:33;;;;;;;3.00;2.33;;;;;;;17.71;100.00;98926.22;4933169;29;20828;-81
2023/08/03 01:39:11;;;;;;;5.40;2.17;;;;;;;17.75;100.00;98928.06;4924391;29;20453;-79
2023/08/03 01:41:42;;;;;;;2.80;2.00;;;;;;;17.70;100.00;98924.56;4916274;29;20540;-81
2023/08/03 01:44:26;;;;;;;3.10;1.70;;;;;;;17.58;100.00;98926.91;4914444;29;20429;-83
2023/08/03 01:46:57;;;;;;;3.30;1.83;;;;;;;17.50;100.00;98936.59;4904479;29;20473;-82
2023/08/03 01:49:28;;;;;;;3.77;1.60;;;;;;;17.38;100.00;98925.25;4904786;29;20500;-81
2023/08/03 01:51:58;;;;;;;4.83;2.17;;;;;;;17.44;100.00;98937.75;4907968;29;20535;-81
2023/08/03 01:54:29;;;;;;;2.67;1.97;;;;;;;17.25;100.00;98951.41;4911913;29;20450;-82
2023/08/03 01:56:58;;;;;;;2.87;1.60;;;;;;;17.18;100.00;98955.59;4903699;29;20424;-82
2023/08/03 01:59:28;;;;;;;4.23;2.50;;;;;;;17.29;100.00;98962.56;4905008;29;20409;-82
2023/08/03 02:01:57;;;;;;;2.50;2.10;;;;;;;17.36;100.00;98963.03;4903953;29;20417;-80
2023/08/03 02:04:26;;;;;;;2.07;1.87;;;;;;;17.23;100.00;98959.06;4896450;29;20733;-81
2023/08/03 02:06:58;;;;;;;1.83;1.60;;;;;;;17.20;100.00;98965.13;4903534;29;20505;-81
2023/08/03 02:09:30;;;;;;;3.33;2.33;;;;;;;17.10;100.00;98975.34;4903409;29;20443;-82
2023/08/03 02:11:59;;;;;;;3.47;2.40;;;;;;;17.15;100.00;98972.56;4920378;29;20443;-80
2023/08/03 02:14:28;;;;;;;2.37;2.03;;;;;;;17.13;100.00;98966.59;4904077;29;20996;-82
2023/08/03 02:16:57;;;;;;;3.80;2.03;;;;;;;17.14;100.00;98970.94;4916081;29;20508;-80
2023/08/03 02:19:26;;;;;;;2.83;2.53;;;;;;;17.15;100.00;98969.84;4909229;29;20450;-82
2023/08/03 02:21:55;;;;;;;3.30;2.00;;;;;;;17.20;100.00;98975.25;4909853;29;20461;-79
2023/08/03 02:24:24;;;;;;;3.43;2.47;;;;;;;17.18;100.00;98972.00;4908037;29;20433;-80
2023/08/03 02:26:57;;;;;;;4.50;2.67;;;;;;;17.18;100.00;98972.00;4915177;29;20790;-82
2023/08/03 02:29:26;;;;;;;3.27;2.40;;;;;;;17.19;100.00;98962.69;4918660;29;20442;-82
2023/08/03 02:31:55;;;;;;;2.60;2.20;;;;;;;17.17;100.00;98968.47;4917051;29;20445;-81
2023/08/03 02:34:24;;;;;;;2.23;1.60;;;;;;;17.11;100.00;98977.00;4915756;29;21081;-82
2023/08/03 02:36:58;;;;;;;4.37;2.13;;;;;;;17.19;100.00;98970.88;4911758;29;20535;-81
2023/08/03 02:39:27;;;;;;;7.23;2.40;;;;;;;17.22;100.00;98973.03;4909254;29;20429;-82
2023/08/03 02:41:59;;;;;;;2.63;2.37;;;;;;;17.25;100.00;98975.19;4901998;29;20420;-82
2023/08/03 02:44:36;;;;;;;2.27;1.97;;;;;;;17.25;100.00;98967.81;4901810;29;20416;-80
2023/08/03 02:47:06;;;;;;;2.90;2.10;;;;;;;17.20;100.00;98965.13;4905596;29;20804;-82
2023/08/03 02:49:35;;;;;;;2.30;1.93;;;;;;;17.20;100.00;98964.31;4900705;29;20409;-83
2023/08/03 02:52:07;;;;;;;3.50;2.23;;;;;;;17.25;100.00;98965.06;4890751;29;20501;-81
2023/08/03 02:54:46;;;;;;;3.90;2.07;;;;;;;17.34;100.00;98957.03;4912528;29;20430;-81
2023/08/03 02:57:19;;;;;;;2.90;2.60;;;;;;;17.29;100.00;98957.09;4910263;29;20460;-81
2023/08/03 02:59:51;;;;;;;2.90;1.90;;;;;;;17.35;100.00;98955.91;4896457;29;20469;-81
2023/08/03 03:02:22;;;;;;;5.80;2.63;;;;;;;17.38;100.00;98952.59;4899680;29;20421;-82
2023/08/03 03:04:52;;;;;;;2.97;2.67;;;;;;;17.44;100.00;98967.84;4901904;29;20413;-82
2023/08/03 03:07:21;;;;;;;3.70;2.90;;;;;;;17.40;100.00;98964.06;4905089;29;20448;-82
2023/08/03 03:09:54;;;;;;;2.93;2.03;;;;;;;17.38;100.00;98966.25;4909838;29;20472;-81
2023/08/03 03:12:25;;;;;;;5.00;2.80;;;;;;;17.36;100.00;98957.56;4919542;29;20449;-80
2023/08/03 03:14:54;;;;;;;5.40;2.53;;;;;;;17.31;100.00;98969.38;4925227;29;20469;-81
2023/08/03 03:17:23;;;;;;;3.70;2.70;;;;;;;17.35;100.00;98958.66;4907203;29;20477;-81
2023/08/03 03:19:52;;;;;;;4.10;2.57;;;;;;;17.37;100.00;98957.28;4908218;29;20474;-82
2023/08/03 03:22:21;;;;;;;4.83;2.90;;;;;;;17.42;100.00;98961.88;4905014;29;20437;-81
2023/08/03 03:24:50;;;;;;;3.63;2.23;;;;;;;17.39;100.00;98957.78;4897656;29;20415;-83
2023/08/03 03:27:19;;;;;;;7.60;2.90;;;;;;;17.34;100.00;98951.56;4903190;29;20469;-82
2023/08/03 03:29:54;;;;;;;3.17;2.60;;;;;;;17.41;100.00;98956.69;4906874;29;20471;-81
2023/08/03 03:32:23;;;;;;;4.10;2.20;;;;;;;17.39;100.00;98965.16;4903282;29;20445;-81
2023/08/03 03:34:52;;;;;;;5.50;2.50;;;;;;;17.41;100.00;98962.97;4903360;29;20911;-81
2023/08/03 03:37:21;;;;;;;5.70;2.90;;;;;;;17.47;100.00;98964.53;4908957;29;20444;-80
2023/08/03 03:39:50;;;;;;;5.57;2.93;;;;;;;17.47;100.00;98952.78;4904882;29;20457;-79
2023/08/03 03:42:26;;;;;;;2.97;2.67;;;;;;;17.43;100.00;98960.72;4902651;29;20574;-82
2023/08/03 03:44:56;;;;;;;2.43;2.23;;;;;;;17.51;100.00;98962.81;4903446;29;20441;-81
2023/08/03 03:47:29;;;;;;;5.10;2.10;;;;;;;17.46;100.00;98957.44;4914445;29;20491;-82
2023/08/03 03:50:01;;;;;;;3.83;2.50;;;;;;;17.58;100.00;98946.03;4906220;29;20454;-81
2023/08/03 03:52:33;;;;;;;3.43;2.87;;;;;;;17.55;100.00;98955.66;4902778;29;20490;-81
2023/08/03 03:55:06;;;;;;;6.97;2.30;;;;;;;17.55;100.00;98957.56;4908918;29;20434;-82
2023/08/03 03:57:36;;;;;;;5.00;2.50;;;;;;;17.62;100.00;98958.84;4900087;29;20449;-82
2023/08/03 04:00:09;;;;;;;3.70;1.97;;;;;;;17.72;100.00;98964.19;4919167;29;20934;-81
2023/08/03 04:02:43;;;;;;;7.30;2.90;;;;;;;18.21;100.00;98963.72;4902993;29;20414;-82
2023/08/03 04:05:19;;;;;;;6.03;2.27;;;;;;;18.97;97.00;98954.19;4926856;29;20459;-81
2023/08/03 04:07:48;;;;;;;3.60;2.37;;;;;;;19.14;94.45;98958.22;4919472;29;20439;-81
2023/08/03 04:10:17;;;;;;;3.50;2.70;;;;;;;19.09;93.65;98956.41;4917638;29;20434;-80
2023/08/03 04:12:46;;;;;;;6.93;2.40;;;;;;;18.76;95.17;98957.59;4913084;29;20480;-81
2023/08/03 04:15:16;;;;;;;6.37;2.60;;;;;;;18.65;96.62;98959.69;4901978;29;20452;-83
2023/08/03 04:17:48;;;;;;;2.70;1.73;;;;;;;18.55;97.46;98963.44;4898760;29;20795;-80
2023/08/03 04:20:20;;;;;;;8.40;2.67;;;;;;;18.74;95.93;98959.81;4913118;29;20473;-81
2023/08/03 04:22:49;;;;;;;3.77;2.37;;;;;;;18.76;95.15;98963.06;4917556;29;20442;-80
2023/08/03 04:25:20;;;;;;;4.40;2.30;;;;;;;18.66;95.42;98959.41;4930159;29;20522;-80
2023/08/03 04:27:56;;;;;;;5.10;1.93;;;;;;;18.59;96.11;98958.97;4919769;29;20429;-81
2023/08/03 04:30:31;;;;;;;5.43;2.43;;;;;;;18.63;96.19;98956.47;4920357;29;20423;-81
2023/08/03 04:33:00;;;;;;;6.63;1.93;;;;;;;18.75;94.74;98967.75;4920523;29;20510;-80
2023/08/03 04:35:32;;;;;;;5.80;2.20;;;;;;;18.91;93.65;98971.84;4926951;29;20420;-80
2023/08/03 04:38:09;;;;;;;6.90;2.60;;;;;;;20.21;84.43;98966.56;4920263;28;20437;-80
2023/08/03 04:40:41;;;;;;;6.17;2.63;;;;;;;20.09;84.79;98971.00;4931812;29;20448;-81
2023/08/03 04:43:10;;;;;;;7.03;2.50;;;;;;;20.63;82.45;98972.66;4939796;29;20406;-80
2023/08/03 04:45:40;;;;;;;5.83;3.10;;;;;;;20.65;80.08;98978.69;4939046;29;20392;-80
2023/08/03 04:48:09;;;;;;;3.77;1.90;;;;;;;20.00;83.13;98965.41;4927589;29;20461;-82
2023/08/03 04:50:39;;;;;;;4.50;2.33;;;;;;;19.59;85.40;98970.22;4914284;29;20572;-82
2023/08/03 04:53:08;;;;;;;4.70;2.30;;;;;;;19.27;87.63;98971.09;4903070;29;20449;-82
2023/08/03 04:55:37;;;;;;;8.40;2.53;;;;;;;19.13;88.17;98965.63;4910236;29;20424;-82
2023/08/03 04:58:06;;;;;;;4.70;2.03;;;;;;;19.07;88.64;98959.44;4904299;29;20478;-82
2023/08/03 05:00:39;;;;;;;3.77;2.47;;;;;;;19.05;88.61;98952.66;4902846;29;20454;-83
2023/08/03 05:03:08;;;;;;;5.47;2.00;;;;;;;19.18;88.07;98948.25;4902524;29;20421;-81
2023/08/03 05:05:37;;;;;;;6.23;2.00;;;;;;;19.54;85.97;98951.94;4888126;29;20568;-80
2023/08/03 05:08:07;;;;;;;5.50;2.30;;;;;;;20.50;79.81;98952.41;4907132;29;20530;-80
2023/08/03 05:10:37;;;;;;;10.27;2.80;;;;;;;20.00;80.92;98950.88;4907956;29;20959;-81
2023/08/03 05:13:06;;;;;;;13.20;2.63;;;;;;;19.63;82.25;98957.50;4913408;29;20444;-81
2023/08/03 05:15:35;;;;;;;7.13;2.13;;;;;;;19.45;83.54;98959.25;4918841;29;20504;-81
2023/08/03 05:18:06;;;;;;;7.23;2.00;;;;;;;19.46;84.02;98942.47;4928350;29;20424;-83
2023/08/03 05:20:35;;;;;;;3.70;2.00;;;;;;;19.40;84.73;98945.63;4927191;29;20429;-83
2023/08/03 05:23:06;;;;;;;6.53;2.43;;;;;;;21.19;76.46;98955.50;4915815;29;20421;-79
2023/08/03 05:25:35;;;;;;;7.40;2.00;;;;;;;22.20;69.26;98951.63;4925451;29;20464;-82
2023/08/03 05:28:05;;;;;;;5.43;2.20;;;;;;;21.23;71.90;98943.56;4928665;29;20454;-81
2023/08/03 05:30:34;;;;;;;8.63;2.37;;;;;;;20.69;74.96;98949.44;4916680;29;20446;-81
2023/08/03 05:33:05;;;;;;;8.20;3.13;;;;;;;20.71;76.06;98955.44;4925459;29;20561;-81
2023/08/03 05:35:34;;;;;;;5.40;2.50;;;;;;;20.75;75.71;98964.66;4929636;29;20434;-80
2023/08/03 05:38:03;;;;;;;7.63;2.53;;;;;;;20.78;74.12;98953.84;4930418;29;20464;-81
2023/08/03 05:40:32;;;;;;;10.90;2.80;;;;;;;21.01;73.74;98959.31;4912325;29;20413;-82
2023/08/03 05:43:01;;;;;;;6.33;3.13;;;;;;;21.10;73.50;98949.97;4907251;29;20416;-83
2023/08/03 05:45:40;;;;;;;4.97;2.37;;;;;;;21.28;72.33;98961.03;4924010;29;20416;-80
2023/08/03 05:48:17;;;;;;;5.40;2.33;;;;;;;21.37;71.30;98964.63;4923153;29;20449;-81
2023/08/03 05:50:48;;;;;;;6.13;2.50;;;;;;;21.48;71.01;98961.25;4894649;29;20448;-81
2023/08/03 05:53:18;;;;;;;5.53;2.10;;;;;;;21.37;70.65;98962.69;4913134;29;20812;-81
2023/08/03 05:55:47;;;;;;;5.23;2.10;;;;;;;21.10;70.70;98966.47;4906303;29;20413;-81
2023/08/03 05:58:37;;;;;;;4.67;2.77;;;;;;;20.97;71.49;98958.28;5007241;23;20475;-78
2023/08/03 06:01:09;;;;;;;5.83;2.63;;;;;;;21.05;71.81;98963.84;4923971;29;20397;-80
2023/08/03 06:03:44;;;;;;;4.90;2.77;;;;;;;21.14;71.85;98955.66;4917269;29;20419;-79
2023/08/03 06:06:18;;;;;;;6.67;2.50;;;;;;;21.14;70.59;98961.16;4907975;29;20438;-79
2023/08/03 06:08:49;;;;;;;3.27;1.77;;;;;;;21.22;70.69;98974.94;4900498;29;20471;-79
2023/08/03 06:11:20;;;;;;;5.03;2.60;;;;;;;21.24;69.95;98960.88;4886180;29;20718;-78
2023/08/03 06:13:56;;;;;;;6.63;2.10;;;;;;;21.40;70.01;98969.47;4890932;29;20440;-80
2023/08/03 06:16:25;;;;;;;5.83;2.73;;;;;;;21.10;69.38;98955.47;4896458;29;20414;-80
2023/08/03 06:18:58;;;;;;;5.70;2.27;;;;;;;21.28;69.74;98966.53;4891500;29;21011;-79
2023/08/03 06:21:29;;;;;;;6.70;3.03;;;;;;;21.53;69.25;98971.31;4891561;29;20475;-80
2023/08/03 06:23:59;;;;;;;8.77;2.30;;;;;;;21.80;68.90;98984.78;4885625;29;20444;-80
2023/08/03 06:26:32;;;;;;;4.77;1.77;;;;;;;21.73;67.46;98973.44;4887962;29;20972;-79
2023/08/03 06:29:02;;;;;;;7.80;2.00;;;;;;;21.99;66.09;98982.56;4888591;29;20443;-80
2023/08/03 06:31:35;;;;;;;4.33;1.73;;;;;;;21.98;67.57;98975.41;4882635;29;20440;-79
2023/08/03 06:34:10;;;;;;;4.57;1.80;;;;;;;21.81;66.56;98980.09;4883033;29;20830;-80
2023/08/03 06:36:44;;;;;;;7.17;2.87;;;;;;;22.04;66.12;98985.16;4889533;29;20948;-80
2023/08/03 06:39:13;;;;;;;6.70;2.00;;;;;;;22.33;64.34;98987.25;4883835;29;20901;-79
2023/08/03 06:41:43;;;;;;;6.30;2.00;;;;;;;22.63;62.69;98988.19;4888498;29;20808;-80
2023/08/03 06:44:17;;;;;;;5.33;1.70;;;;;;;22.66;62.46;98984.75;4894514;29;20817;-80
2023/08/03 06:46:46;;;;;;;6.20;2.37;;;;;;;23.30;60.25;98993.84;4886351;29;20790;-80
2023/08/03 06:49:17;;;;;;;3.73;1.47;;;;;;;23.30;59.54;99004.88;4887913;29;20477;-79
2023/08/03 06:51:46;;;;;;;8.43;2.23;;;;;;;22.65;62.11;99004.41;4887849;29;20542;-82
2023/08/03 06:54:16;;;;;;;6.50;2.10;;;;;;;22.53;63.43;99010.56;4884966;29;20833;-80
2023/08/03 06:56:47;;;;;;;6.73;1.97;;;;;;;22.40;62.82;99008.81;4878477;29;20596;-80
2023/08/03 06:59:21;;;;;;;6.40;2.30;;;;;;;22.09;62.87;98998.75;4904370;29;20474;-81
2023/08/03 07:01:51;;;;;;;4.33;1.80;;;;;;;22.14;63.10;99017.06;4902985;29;20458;-80
2023/08/03 07:04:22;;;;;;;4.60;1.47;;;;;;;22.09;62.43;99015.28;4903840;29;20406;-80
2023/08/03 07:06:51;;;;;;;5.90;3.83;;;;;;;22.20;62.42;99024.06;4900338;29;20972;-80
2023/08/03 07:09:20;;;;;;;3.90;1.70;;;;;;;22.00;62.84;99022.75;4905836;29;20465;-80
2023/08/03 07:11:49;;;;;;;4.90;2.23;;;;;;;22.07;63.26;99025.03;4900093;29;20491;-80
2023/08/03 07:14:19;;;;;;;5.30;1.83;;;;;;;21.96;62.48;99032.78;4900738;29;20483;-81
2023/08/03 07:16:48;;;;;;;5.77;1.97;;;;;;;21.94;62.70;99024.03;4892368;29;20454;-80
2023/08/03 07:19:18;;;;;;;4.87;1.90;;;;;;;22.12;62.77;99024.06;4888177;29;20484;-79
2023/08/03 07:21:48;;;;;;;6.00;1.60;;;;;;;21.87;61.40;99039.38;4884084;29;20439;-80
2023/08/03 07:24:18;;;;;;;4.60;1.40;;;;;;;22.04;62.70;99043.00;4893199;29;20490;-80
2023/08/03 07:26:49;;;;;;;10.67;1.50;;;;;;;21.85;62.71;99042.44;4889642;29;20447;-81
2023/08/03 07:29:18;;;;;;;6.10;1.70;;;;;;;21.73;63.64;99039.50;4886261;29;20434;-79
2023/08/03 07:31:48;;;;;;;5.13;1.90;;;;;;;21.42;64.90;99044.25;4904433;29;20413;-80
2023/08/03 07:34:17;;;;;;;6.30;1.53;;;;;;;21.36;64.82;99057.34;4895937;29;20471;-82
2023/08/03 07:36:51;;;;;;;8.40;1.77;;;;;;;21.39;65.30;99053.97;4897659;29;20421;-80
2023/08/03 07:39:20;;;;;;;5.53;1.73;;;;;;;21.41;65.58;99048.13;4905127;29;20451;-80
2023/08/03 07:41:49;;;;;;;3.10;1.60;;;;;;;21.44;64.77;99055.78;4885451;29;20619;-81
2023/08/03 07:44:20;;;;;;;2.03;1.40;;;;;;;21.73;63.55;99055.22;4889801;29;20398;-81
2023/08/03 07:46:49;;;;;;;3.27;1.70;;;;;;;22.15;62.59;99054.50;4891825;29;20451;-79
2023/08/03 07:49:19;;;;;;;6.73;2.03;;;;;;;22.35;60.79;99061.34;4888849;29;20489;-80
2023/08/03 07:51:50;;;;;;;2.63;1.60;;;;;;;22.51;60.47;99054.22;4891199;29;20465;-81
2023/08/03 07:54:19;;;;;;;4.83;1.60;;;;;;;22.65;58.73;99056.78;4904226;29;20463;-81
2023/08/03 07:56:48;;;;;;;3.03;1.10;;;;;;;22.81;58.76;99055.16;4897547;29;20427;-80
2023/08/03 07:59:17;;;;;;;4.87;2.10;;;;;;;23.00;57.13;99063.88;4904237;29;20498;-80
2023/08/03 08:01:47;;;;;;;4.10;1.33;;;;;;;23.29;56.56;99063.13;4898042;29;20451;-80
2023/08/03 08:04:18;;;;;;;4.17;1.70;;;;;;;23.61;56.51;99062.56;4906304;29;20463;-79
2023/08/03 08:06:47;;;;;;;4.77;1.63;;;;;;;23.44;55.33;99059.84;4909133;29;20439;-80
2023/08/03 08:09:18;;;;;;;5.70;1.57;;;;;;;23.39;55.33;99052.56;4896653;29;20440;-80
2023/08/03 08:11:47;;;;;;;4.40;1.53;;;;;;;23.62;54.58;99063.38;4896658;29;20551;-80
2023/08/03 08:14:17;;;;;;;3.00;1.67;;;;;;;23.65;55.11;99060.75;4900256;29;20474;-79
2023/08/03 08:16:46;;;;;;;4.30;1.40;;;;;;;23.56;54.32;99062.75;4894964;29;20458;-81
2023/08/03 08:19:26;;;;;;;3.87;1.50;;;;;;;23.67;54.38;99061.22;4887930;29;20459;-80
2023/08/03 08:21:55;;;;;;;3.37;1.37;;;;;;;23.37;55.52;99060.38;4889678;29;20474;-81
2023/08/03 08:24:44;;;;;;;7.70;2.33;;;;;;;22.85;56.50;99065.19;4888995;29;20458;-79
2023/08/03 08:27:15;;;;;;;5.50;1.73;;;;;;;22.76;57.18;99071.88;4899886;29;20521;-80
2023/08/03 08:29:46;;;;;;;2.37;1.43;;;;;;;22.69;57.81;99072.34;4903992;29;20496;-80
2023/08/03 08:32:15;;;;;;;2.23;1.30;;;;;;;;;;4883694;29;20506;-80
2023/08/03 08:34:44;;;;;;;3.73;1.70;;;;;;;23.08;55.76;99060.31;4895101;29;20482;-80
2023/08/03 08:37:13;;;;;;;5.57;2.00;;;;;;;23.24;55.71;99077.13;4890363;29;21286;-81
2023/08/03 08:39:44;;;;;;;5.03;1.63;;;;;;;23.03;56.41;99078.97;4890088;29;20546;-81
2023/08/03 08:42:14;;;;;;;2.83;0.90;;;;;;;22.78;56.12;99081.44;4888902;29;20488;-80
2023/08/03 08:44:44;;;;;;;3.30;1.20;;;;;;;22.91;56.65;99076.88;4891872;29;20435;-80
2023/08/03 08:47:13;;;;;;;3.10;1.87;;;;;;;23.37;54.98;99084.41;4900359;29;20445;-80
2023/08/03 08:49:42;;;;;;;4.20;1.20;;;;;;;23.59;54.52;99083.34;4913712;29;20469;-79
2023/08/03 08:52:20;;;;;;;4.50;1.13;;;;;;;23.71;53.15;99087.06;4903234;29;20582;-80
2023/08/03 08:54:51;;;;;;;4.33;1.20;;;;;;;24.06;52.57;99098.69;4877045;29;20471;-81
2023/08/03 08:57:22;;;;;;;3.27;1.37;;;;;;;24.12;52.53;99093.78;4895826;29;20503;-81
2023/08/03 09:00:02;;;;;;;1.30;0.90;;;;;;;23.82;52.72;99091.03;4897978;29;20551;-81
2023/08/03 09:02:31;;;;;;;5.50;1.80;;;;;;;24.26;52.24;99088.84;4894604;29;20477;-80
2023/08/03 09:05:10;;;;;;;4.33;1.20;;;;;;;24.88;51.04;99090.81;4913693;29;20469;-80
2023/08/03 09:07:39;;;;;;;4.20;1.37;;;;;;;24.34;50.74;99092.72;4895676;29;20482;-80
2023/08/03 09:10:10;;;;;;;1.70;0.70;;;;;;;24.00;51.71;99099.25;4898177;29;20447;-79
2023/08/03 09:12:42;;;;;;;3.57;0.90;;;;;;;23.86;51.97;99095.91;4896985;29;20431;-80
2023/08/03 09:15:11;;;;;;;2.20;0.87;;;;;;;23.91;52.83;99109.53;4890950;29;20522;-80
2023/08/03 09:17:42;;;;;;;3.90;1.00;;;;;;;23.82;52.17;99099.31;4894269;29;20732;-81
2023/08/03 09:20:25;;;;;;;1.83;0.73;;;;;;;24.17;52.08;99105.50;4903450;29;20454;-81
2023/08/03 09:22:57;;;;;;;3.70;0.97;;;;;;;24.57;51.24;99105.84;4906706;29;20450;-80
2023/08/03 09:25:32;;;;;;;8.00;1.17;;;;;;;24.77;50.12;99108.94;4906222;29;20431;-81
2023/08/03 09:28:09;;;;;;;2.20;0.70;;;;;;;24.49;49.93;99105.94;4907542;29;20442;-80
2023/08/03 09:30:49;;;;;;;6.63;0.90;;;;;;;24.59;50.02;99095.25;4904249;29;20459;-80
2023/08/03 09:33:21;;;;;;;1.67;0.83;;;;;;;24.44;50.12;99108.91;4894628;29;20561;-79
2023/08/03 09:36:04;;;;;;;2.17;1.00;;;;;;;24.20;50.95;99112.31;4888890;29;20513;-81
2023/08/03 09:38:33;;;;;;;3.73;1.20;;;;;;;24.19;51.63;99111.50;4905723;29;20765;-80
2023/08/03 09:41:04;;;;;;;2.40;1.40;;;;;;;24.34;52.03;99098.25;4903700;29;20431;-79
2023/08/03 09:43:34;;;;;;;1.93;0.80;;;;;;;24.29;51.74;99113.06;4910220;29;20872;-80
2023/08/03 09:46:04;;;;;;;2.90;1.00;;;;;;;24.18;51.69;99111.84;4902310;29;20442;-80
2023/08/03 09:48:33;;;;;;;3.50;1.00;;;;;;;23.83;53.47;99112.00;4889001;29;20913;-81
2023/08/03 09:51:04;;;;;;;1.97;0.80;;;;;;;23.51;54.47;99115.38;4885993;29;20471;-81
2023/08/03 09:53:39;;;;;;;4.00;0.80;;;;;;;22.76;60.72;99125.06;4884972;29;20414;-79
2023/08/03 09:56:10;;;;;;;3.37;1.07;;;;;;;22.27;63.22;99128.28;4886559;29;20854;-79
2023/08/03 09:58:46;;;;;;;2.10;1.00;;;;;;;21.90;65.56;99126.84;4904805;29;20540;-80
2023/08/03 10:01:18;;;;;;;5.53;1.33;;;;;;;22.37;62.83;99125.19;4898805;29;20554;-81
2023/08/03 10:03:52;;;;;;;1.27;0.80;;;;;;;22.76;60.32;99125.06;4892644;29;20405;-81
2023/08/03 10:06:25;;;;;;;5.10;0.80;;;;;;;23.11;57.82;99122.28;4887357;29;20431;-81
2023/08/03 10:09:00;;;;;;;3.70;1.20;;;;;;;23.43;56.37;99127.22;4900433;29;20555;-81
2023/08/03 10:11:36;;;;;;;3.20;0.93;;;;;;;23.88;55.31;99119.28;4900879;29;20492;-79
2023/08/03 10:14:08;;;;;;;1.60;0.80;;;;;;;24.33;53.17;99107.66;4903444;29;20441;-80
2023/08/03 10:16:40;;;;;;;2.80;0.90;;;;;;;24.21;52.37;99123.00;4902398;29;21008;-80
2023/08/03 10:19:10;;;;;;;2.90;1.10;;;;;;;24.42;51.87;99123.03;4896399;29;20450;-81
2023/08/03 10:21:40;;;;;;;3.70;0.93;;;;;;;24.92;49.96;99109.16;4900433;29;20467;-81
2023/08/03 10:24:10;;;;;;;4.60;1.07;;;;;;;24.73;49.50;99103.28;4888731;29;20439;-80
2023/08/03 10:26:43;;;;;;;6.53;1.70;;;;;;;24.47;50.64;99111.78;4884898;29;20431;-82
2023/08/03 10:29:13;;;;;;;3.97;0.80;;;;;;;24.57;50.21;99130.75;4889578;29;20990;-80
2023/08/03 10:31:56;;;;;;;2.70;0.70;;;;;;;24.77;49.25;99128.31;4894007;29;20444;-81
2023/08/03 10:34:26;;;;;;;3.00;0.80;;;;;;;24.97;49.49;99128.31;4890772;29;20466;-81
2023/08/03 10:36:57;;;;;;;3.97;1.13;;;;;;;25.16;49.10;99119.50;4899274;29;20977;-80
2023/08/03 10:39:49;;;;;;;2.43;0.93;;;;;;;24.60;49.41;99132.81;4893749;29;20487;-79
2023/08/03 10:42:22;;;;;;;2.03;1.00;;;;;;;23.83;51.30;99125.81;4884650;29;20458;-80
2023/08/03 10:44:51;;;;;;;2.33;1.00;;;;;;;23.35;54.29;99125.31;4897441;29;20427;-81
2023/08/03 10:47:28;;;;;;;2.70;1.13;;;;;;;23.07;56.22;99127.66;4887900;29;20477;-80
2023/08/03 10:49:59;;;;;;;3.30;0.90;;;;;;;23.17;55.15;99126.50;4885170;29;20855;-80
2023/08/03 10:52:30;;;;;;;3.40;1.37;;;;;;;23.74;53.23;99132.50;4895599;29;20417;-79
2023/08/03 10:55:00;;;;;;;4.13;0.70;;;;;;;24.27;52.08;99123.63;4896515;29;21017;-79
2023/08/03 10:57:31;;;;;;;3.47;0.97;;;;;;;24.77;49.61;99122.78;4890460;29;20431;-80
2023/08/03 11:00:03;;;;;;;1.70;0.90;;;;;;;24.84;49.51;99123.84;4892983;29;20507;-80
2023/08/03 11:02:36;;;;;;;4.30;0.90;;;;;;;24.35;51.37;99144.09;4893670;29;20502;-80
2023/08/03 11:05:07;;;;;;;3.07;1.00;;;;;;;23.72;52.10;99135.59;4893404;29;20537;-81
2023/08/03 11:07:39;;;;;;;3.10;0.80;;;;;;;23.32;53.42;99145.28;4896653;29;20573;-80
2023/08/03 11:10:10;;;;;;;1.80;0.63;;;;;;;23.38;53.58;99146.75;4900744;29;20438;-80
2023/08/03 11:12:42;;;;;;;7.03;1.37;;;;;;;23.63;51.81;99145.88;4902432;29;20461;-80
2023/08/03 11:15:15;;;;;;;7.93;1.67;;;;;;;23.76;51.38;99139.34;4913842;29;20447;-80
2023/08/03 11:17:49;;;;;;;3.70;0.80;;;;;;;24.02;50.67;99133.66;4907036;29;20456;-80
2023/08/03 11:20:19;;;;;;;3.43;0.77;;;;;;;24.31;49.56;99141.16;4902577;29;20432;-80
2023/08/03 11:22:50;;;;;;;2.90;0.90;;;;;;;24.90;48.99;99138.31;4898181;29;20469;-79
2023/08/03 11:25:22;;;;;;;4.00;1.20;;;;;;;25.43;47.75;99134.69;4904306;29;20463;-79
2023/08/03 11:27:54;;;;;;;3.10;0.80;;;;;;;25.27;47.49;99148.34;4902823;29;20454;-79
2023/08/03 11:30:25;;;;;;;1.50;0.80;;;;;;;25.34;47.76;99142.28;4891075;29;20428;-80
2023/08/03 11:32:58;;;;;;;1.60;0.80;;;;;;;25.46;47.55;99150.63;4906847;29;20462;-79
2023/08/03 11:35:29;;;;;;;1.30;0.80;;;;;;;25.17;49.45;99159.06;4908591;29;20470;-80
2023/08/03 11:37:58;;;;;;;7.50;1.30;;;;;;;24.99;50.69;99164.75;4906974;29;20445;-80
2023/08/03 11:40:28;;;;;;;6.70;2.27;;;;;;;24.55;51.25;99163.44;4905937;29;20435;-80
2023/08/03 11:42:59;;;;;;;3.53;1.10;;;;;;;24.59;51.86;99161.63;4909355;29;20428;-80
2023/08/03 11:45:30;;;;;;;2.33;1.00;;;;;;;24.79;51.96;99159.19;4911340;29;20426;-80
2023/08/03 11:48:00;;;;;;;1.97;0.97;;;;;;;25.17;50.75;99168.19;4907360;29;20462;-80
2023/08/03 11:50:29;;;;;;;2.20;1.00;;;;;;;25.23;49.96;99175.09;4903222;29;20434;-79